Time;durP1;ratioP1;P1;durP2;ratioP2;P2;SDS_P1;SDS_P2;PMS_P1;PMS_P2;Temp;Humidity;BMP_temperature;BMP_pressure;BME280_temperature;BME280_humidity;BME280_pressure;Samples;Min_cycle;Max_cycle;Signal;HPM_P1;HPM_P2
2023/09/05 00:00:10;;;;;;;3.25;0.98;;;23.40;83.40;;;;;;5054562;28;20051;-83
2023/09/05 00:02:38;;;;;;;1.08;0.70;;;23.40;83.10;;;;;;5053583;28;20056;-83
2023/09/05 00:05:07;;;;;;;2.53;1.20;;;23.40;82.90;;;;;;5055217;28;20029;-82
2023/09/05 00:07:36;;;;;;;1.83;0.70;;;23.50;83.10;;;;;;5053792;28;20119;-82
2023/09/05 00:10:07;;;;;;;1.17;0.90;;;23.50;82.70;;;;;;5054048;28;20466;-82
2023/09/05 00:12:34;;;;;;;1.42;0.90;;;23.50;82.70;;;;;;5053980;28;20075;-82
2023/09/05 00:15:00;;;;;;;1.33;0.90;;;23.50;82.60;;;;;;5054880;28;20064;-82
2023/09/05 00:17:26;;;;;;;2.03;0.80;;;23.50;82.60;;;;;;5063048;28;20048;-82
2023/09/05 00:19:52;;;;;;;1.48;0.80;;;23.50;82.20;;;;;;5048494;28;20032;-82
2023/09/05 00:22:20;;;;;;;3.58;0.95;;;23.50;82.40;;;;;;5041593;28;20033;-82
2023/09/05 00:24:47;;;;;;;1.77;0.95;;;23.50;82.50;;;;;;5061007;28;20025;-82
2023/09/05 00:27:13;;;;;;;2.00;1.08;;;23.50;82.60;;;;;;5058383;28;20363;-82
2023/09/05 00:29:41;;;;;;;1.35;0.88;;;23.50;82.30;;;;;;5057703;28;20032;-82
2023/09/05 00:32:07;;;;;;;1.30;0.68;;;23.50;82.30;;;;;;5058319;28;20071;-82
2023/09/05 00:34:36;;;;;;;1.08;0.60;;;23.50;82.40;;;;;;5041235;28;20366;-81
2023/09/05 00:37:03;;;;;;;1.58;0.70;;;23.50;82.50;;;;;;5057449;28;20025;-81
2023/09/05 00:39:29;;;;;;;2.35;0.95;;;23.40;82.40;;;;;;5057412;28;20040;-81
2023/09/05 00:41:58;;;;;;;1.27;0.90;;;23.40;82.40;;;;;;5039323;28;20029;-81
2023/09/05 00:44:24;;;;;;;2.05;0.90;;;23.40;82.30;;;;;;5056986;28;20167;-81
2023/09/05 00:46:52;;;;;;;1.92;0.75;;;23.40;82.40;;;;;;5039241;28;20390;-81
2023/09/05 00:49:22;;;;;;;1.67;0.95;;;23.30;82.50;;;;;;5057037;28;20052;-81
2023/09/05 00:51:50;;;;;;;1.80;1.00;;;23.30;82.50;;;;;;5038904;28;20481;-81
2023/09/05 00:54:16;;;;;;;1.70;0.93;;;23.30;82.10;;;;;;5056829;28;20017;-81
2023/09/05 00:56:45;;;;;;;2.20;0.70;;;23.20;82.60;;;;;;5055357;28;20067;-81
2023/09/05 00:59:12;;;;;;;2.83;1.08;;;23.20;83.00;;;;;;5056962;28;20029;-81
2023/09/05 01:01:37;;;;;;;2.00;0.90;;;23.20;83.00;;;;;;5055990;28;20106;-81
2023/09/05 01:04:04;;;;;;;1.42;0.90;;;23.20;83.10;;;;;;5056414;28;20029;-82
2023/09/05 01:07:02;;;;;;;2.78;1.10;;;23.20;83.10;;;;;;5038783;28;20044;-82
2023/09/05 01:09:36;;;;;;;1.92;1.30;;;23.20;83.00;;;;;;5033603;28;20458;-81
2023/09/05 01:12:02;;;;;;;1.48;1.00;;;23.20;83.00;;;;;;5058920;28;20107;-82
2023/09/05 01:14:28;;;;;;;1.60;1.05;;;23.10;82.90;;;;;;5057364;28;20040;-82
2023/09/05 01:17:01;;;;;;;2.90;1.17;;;23.10;82.90;;;;;;5039293;28;20040;-82
2023/09/05 01:19:30;;;;;;;3.90;1.27;;;23.10;83.10;;;;;;5040612;28;20029;-82
2023/09/05 01:22:06;;;;;;;3.75;1.30;;;23.00;82.60;;;;;;5039342;28;20500;-82
2023/09/05 01:24:35;;;;;;;3.17;1.83;;;22.80;83.00;;;;;;5058329;28;20040;-83
2023/09/05 01:27:02;;;;;;;3.40;1.63;;;22.80;83.20;;;;;;5058895;28;20040;-83
2023/09/05 01:29:35;;;;;;;1.85;1.30;;;22.70;83.50;;;;;;5056773;28;20480;-82
2023/09/05 01:32:02;;;;;;;1.90;1.13;;;22.60;83.70;;;;;;5054233;28;20033;-82
2023/09/05 01:34:27;;;;;;;1.75;1.15;;;22.50;84.20;;;;;;5040202;28;20057;-83
2023/09/05 01:36:53;;;;;;;3.13;1.42;;;22.50;84.40;;;;;;5043209;28;20443;-82
2023/09/05 01:39:19;;;;;;;3.63;1.33;;;22.40;84.20;;;;;;5039776;28;20064;-82
2023/09/05 01:41:45;;;;;;;3.22;1.10;;;22.40;84.50;;;;;;5055340;28;20040;-82
2023/09/05 01:44:11;;;;;;;1.60;1.23;;;22.40;84.70;;;;;;5058218;28;20029;-82
2023/09/05 01:46:37;;;;;;;2.30;1.33;;;22.50;84.70;;;;;;5064252;28;20041;-82
2023/09/05 01:49:03;;;;;;;1.83;1.23;;;22.50;84.60;;;;;;5058916;28;20440;-82
2023/09/05 01:51:29;;;;;;;2.75;1.27;;;22.50;84.70;;;;;;5065458;28;20060;-82
2023/09/05 01:53:54;;;;;;;2.30;1.08;;;22.50;84.60;;;;;;5062317;28;20033;-82
2023/09/05 01:56:20;;;;;;;1.60;1.30;;;22.50;84.30;;;;;;5073096;28;20374;-82
2023/09/05 01:58:46;;;;;;;1.52;0.95;;;22.50;84.60;;;;;;5069676;28;20037;-77
2023/09/05 02:01:11;;;;;;;1.45;0.98;;;22.60;84.40;;;;;;5054389;28;20036;-77
2023/09/05 02:03:37;;;;;;;1.35;1.08;;;22.50;84.20;;;;;;5054163;28;20527;-76
2023/09/05 02:06:03;;;;;;;1.30;0.90;;;22.50;84.20;;;;;;5054408;28;20037;-77
2023/09/05 02:08:29;;;;;;;1.73;1.00;;;22.60;84.30;;;;;;5055423;28;20070;-77
2023/09/05 02:10:55;;;;;;;2.33;1.08;;;22.60;83.90;;;;;;5037715;28;20389;-77
2023/09/05 02:13:20;;;;;;;1.13;0.90;;;22.60;83.80;;;;;;5054120;28;20036;-77
2023/09/05 02:15:46;;;;;;;1.65;1.13;;;22.50;83.90;;;;;;5053886;28;20033;-77
2023/09/05 02:18:12;;;;;;;1.88;1.08;;;22.50;84.00;;;;;;5037423;28;20031;-77
2023/09/05 02:20:38;;;;;;;1.20;0.98;;;22.50;84.10;;;;;;5055043;28;20493;-76
2023/09/05 02:23:04;;;;;;;1.40;0.85;;;22.50;84.10;;;;;;5055541;28;20038;-77
2023/09/05 02:25:30;;;;;;;1.20;0.98;;;22.40;84.40;;;;;;5055178;28;20029;-76
2023/09/05 02:27:55;;;;;;;1.40;1.08;;;22.40;84.50;;;;;;5055165;28;20079;-77
2023/09/05 02:30:21;;;;;;;2.08;1.52;;;22.40;84.10;;;;;;5055105;28;20056;-77
2023/09/05 02:32:51;;;;;;;2.75;1.38;;;22.40;84.10;;;;;;5055001;28;20355;-77
2023/09/05 02:35:20;;;;;;;1.30;0.82;;;22.30;84.40;;;;;;5054893;28;20063;-76
2023/09/05 02:37:49;;;;;;;1.70;1.05;;;22.30;84.50;;;;;;5054169;28;20028;-78
2023/09/05 02:40:15;;;;;;;1.13;1.00;;;22.30;84.50;;;;;;5054048;28;20110;-77
2023/09/05 02:42:40;;;;;;;1.88;0.93;;;22.40;84.50;;;;;;5036978;28;20065;-77
2023/09/05 02:45:06;;;;;;;2.95;1.15;;;22.40;84.40;;;;;;5054475;28;20033;-77
2023/09/05 02:47:32;;;;;;;1.58;1.20;;;22.40;84.50;;;;;;5054795;28;20057;-77
2023/09/05 02:49:58;;;;;;;2.42;0.93;;;22.40;84.50;;;;;;5054554;28;20053;-77
2023/09/05 02:52:24;;;;;;;2.05;1.20;;;22.40;84.40;;;;;;5054726;28;20029;-78
2023/09/05 02:54:50;;;;;;;3.33;1.20;;;22.30;84.30;;;;;;5053843;28;20107;-78
2023/09/05 02:57:16;;;;;;;1.25;1.02;;;22.30;84.20;;;;;;5054904;28;20392;-77
2023/09/05 02:59:42;;;;;;;3.05;1.30;;;22.30;84.20;;;;;;5053400;28;20024;-77
2023/09/05 03:02:07;;;;;;;2.40;1.10;;;22.30;84.30;;;;;;5054422;28;20052;-78
2023/09/05 03:04:33;;;;;;;1.80;0.90;;;22.20;84.40;;;;;;5053310;28;20462;-77
2023/09/05 03:07:02;;;;;;;2.47;0.80;;;22.20;84.90;;;;;;5054958;28;20021;-78
2023/09/05 03:09:29;;;;;;;1.48;0.90;;;22.20;84.90;;;;;;5054395;28;20044;-78
2023/09/05 03:11:55;;;;;;;1.70;1.13;;;22.20;84.80;;;;;;5052869;28;20527;-78
2023/09/05 03:14:21;;;;;;;1.73;1.23;;;22.20;84.70;;;;;;5036399;28;20032;-78
2023/09/05 03:16:47;;;;;;;1.83;0.98;;;22.20;84.40;;;;;;5053866;28;20390;-78
2023/09/05 03:19:13;;;;;;;3.08;1.20;;;22.20;84.20;;;;;;5054197;28;20029;-77
2023/09/05 03:21:39;;;;;;;1.73;1.20;;;22.10;84.40;;;;;;5054420;28;20033;-78
2023/09/05 03:24:05;;;;;;;3.20;1.35;;;22.00;84.70;;;;;;5053176;28;20056;-78
2023/09/05 03:26:30;;;;;;;1.50;1.13;;;22.00;85.00;;;;;;5053812;28;20029;-78
2023/09/05 03:28:58;;;;;;;2.15;1.25;;;22.00;84.90;;;;;;5052867;28;20029;-78
2023/09/05 03:31:24;;;;;;;1.92;1.40;;;21.90;84.90;;;;;;5052726;28;20120;-78
2023/09/05 03:33:50;;;;;;;2.28;1.60;;;21.90;85.00;;;;;;5053927;28;20111;-78
2023/09/05 03:36:16;;;;;;;2.13;1.45;;;21.80;85.50;;;;;;5052778;28;20037;-78
2023/09/05 03:38:42;;;;;;;2.78;1.60;;;21.80;85.20;;;;;;5052619;28;20025;-78
2023/09/05 03:41:08;;;;;;;4.25;1.67;;;21.80;85.00;;;;;;5053876;28;20109;-78
2023/09/05 03:43:34;;;;;;;2.85;1.40;;;21.80;84.80;;;;;;5053580;28;20021;-78
2023/09/05 03:46:00;;;;;;;1.85;1.42;;;21.70;85.10;;;;;;5054066;28;20047;-78
2023/09/05 03:48:26;;;;;;;2.70;1.60;;;21.70;85.40;;;;;;5035932;28;20035;-78
2023/09/05 03:50:52;;;;;;;4.32;1.80;;;21.70;85.20;;;;;;5053142;28;20405;-78
2023/09/05 03:53:18;;;;;;;1.73;1.30;;;21.60;85.20;;;;;;5053651;28;20056;-77
2023/09/05 03:55:45;;;;;;;4.43;1.90;;;21.50;85.40;;;;;;5053581;28;20036;-78
2023/09/05 03:58:11;;;;;;;2.25;1.60;;;21.40;85.70;;;;;;5053905;28;20056;-77
2023/09/05 04:00:36;;;;;;;4.10;1.60;;;21.30;86.10;;;;;;5035700;28;20525;-78
2023/09/05 04:03:02;;;;;;;4.43;1.95;;;21.20;86.30;;;;;;5053599;28;20504;-78
2023/09/05 04:05:29;;;;;;;4.80;1.70;;;21.20;86.60;;;;;;5035691;28;20370;-78
2023/09/05 04:07:55;;;;;;;2.88;1.73;;;21.20;86.70;;;;;;5053561;28;20033;-78
2023/09/05 04:10:22;;;;;;;3.13;1.83;;;21.20;87.50;;;;;;5053850;28;20473;-78
2023/09/05 04:12:49;;;;;;;1.85;1.33;;;21.10;87.00;;;;;;5053493;28;20044;-78
2023/09/05 04:15:20;;;;;;;4.88;2.00;;;21.10;87.50;;;;;;5053674;28;20374;-79
2023/09/05 04:17:47;;;;;;;3.42;2.00;;;21.10;87.30;;;;;;5052241;28;20033;-78
2023/09/05 04:20:13;;;;;;;2.97;1.63;;;21.20;87.30;;;;;;5053332;28;20068;-78
2023/09/05 04:22:39;;;;;;;3.20;2.05;;;21.10;87.30;;;;;;5053302;28;20116;-78
2023/09/05 04:25:06;;;;;;;2.80;1.90;;;21.10;87.30;;;;;;5053690;28;20087;-79
2023/09/05 04:27:32;;;;;;;4.00;2.03;;;21.00;87.60;;;;;;5053192;28;20033;-79
2023/09/05 04:29:58;;;;;;;2.33;2.03;;;21.00;87.60;;;;;;5053576;28;20029;-78
2023/09/05 04:32:33;;;;;;;2.65;1.90;;;20.90;87.90;;;;;;5053388;28;20033;-78
2023/09/05 04:35:00;;;;;;;2.40;1.80;;;20.90;87.80;;;;;;5052938;28;20033;-78
2023/09/05 04:37:27;;;;;;;2.20;1.90;;;20.90;87.80;;;;;;5053129;28;20021;-79
2023/09/05 04:39:53;;;;;;;3.30;2.33;;;20.90;87.70;;;;;;5053485;28;20083;-79
2023/09/05 04:42:19;;;;;;;3.10;1.90;;;20.90;87.50;;;;;;5052293;28;20057;-79
2023/09/05 04:44:45;;;;;;;5.88;2.80;;;20.90;87.60;;;;;;5035293;28;20040;-78
2023/09/05 04:47:26;;;;;;;2.92;1.92;;;20.80;87.60;;;;;;5053130;28;20481;-78
2023/09/05 04:49:57;;;;;;;3.35;2.58;;;20.70;87.90;;;;;;5053184;28;20048;-79
2023/09/05 04:52:28;;;;;;;3.72;2.40;;;20.70;87.90;;;;;;5034956;28;20393;-78
2023/09/05 04:54:55;;;;;;;4.30;2.65;;;20.60;88.00;;;;;;5053308;28;20079;-78
2023/09/05 04:57:21;;;;;;;3.13;2.35;;;20.50;88.10;;;;;;5035237;28;20123;-79
2023/09/05 04:59:47;;;;;;;3.60;2.45;;;20.50;88.40;;;;;;5053103;28;20056;-79
2023/09/05 05:02:16;;;;;;;3.67;2.40;;;20.50;88.40;;;;;;5054749;28;20052;-79
2023/09/05 05:04:43;;;;;;;3.90;2.60;;;20.40;88.50;;;;;;5056742;28;20154;-78
2023/09/05 05:07:10;;;;;;;6.70;2.55;;;20.40;88.50;;;;;;5055584;28;20366;-78
2023/09/05 05:09:36;;;;;;;2.78;2.47;;;20.40;88.70;;;;;;5056987;28;20025;-78
2023/09/05 05:12:02;;;;;;;3.60;2.20;;;20.30;88.60;;;;;;5056558;28;20029;-78
2023/09/05 05:14:28;;;;;;;4.10;2.60;;;20.20;88.90;;;;;;5056240;28;20071;-78
2023/09/05 05:16:54;;;;;;;3.97;2.45;;;20.30;89.00;;;;;;5056200;28;20037;-76
2023/09/05 05:19:24;;;;;;;3.40;2.83;;;20.30;89.10;;;;;;5055270;28;20029;-75
2023/09/05 05:21:50;;;;;;;3.58;2.55;;;20.30;89.00;;;;;;5038517;28;20370;-76
2023/09/05 05:24:16;;;;;;;2.92;2.00;;;20.30;89.00;;;;;;5056569;28;20025;-76
2023/09/05 05:26:43;;;;;;;4.07;2.88;;;20.20;89.10;;;;;;5038394;28;20469;-77
2023/09/05 05:29:08;;;;;;;3.40;2.55;;;20.20;89.10;;;;;;5056556;28;20033;-78
2023/09/05 05:31:34;;;;;;;4.07;2.72;;;20.20;89.60;;;;;;5056161;28;20043;-77
2023/09/05 05:34:01;;;;;;;4.13;2.30;;;20.20;89.10;;;;;;5056219;28;20442;-76
2023/09/05 05:36:29;;;;;;;4.43;2.22;;;20.20;89.20;;;;;;5056002;28;20103;-77
2023/09/05 05:38:54;;;;;;;5.78;2.33;;;20.20;89.40;;;;;;5055713;28;20129;-77
2023/09/05 05:41:20;;;;;;;5.18;2.70;;;20.20;89.60;;;;;;5054450;28;20113;-77
2023/09/05 05:43:46;;;;;;;4.30;2.30;;;20.10;89.70;;;;;;5055641;28;20189;-78
2023/09/05 05:46:12;;;;;;;3.50;1.67;;;20.20;89.80;;;;;;5037877;28;20033;-78
2023/09/05 05:48:38;;;;;;;2.72;2.30;;;20.20;89.80;;;;;;5037985;28;20025;-79
2023/09/05 05:51:04;;;;;;;4.72;1.98;;;20.30;89.80;;;;;;5037895;28;20496;-78
2023/09/05 05:53:30;;;;;;;3.03;1.80;;;20.40;89.60;;;;;;5038394;28;20068;-78
2023/09/05 05:55:56;;;;;;;3.60;1.70;;;20.40;89.40;;;;;;5055683;28;20048;-78
2023/09/05 05:58:21;;;;;;;2.95;1.83;;;20.50;89.40;;;;;;5038177;28;20116;-78
2023/09/05 06:00:50;;;;;;;3.47;1.42;;;20.50;89.20;;;;;;5055271;28;20032;-79
2023/09/05 06:03:25;;;;;;;2.88;1.90;;;20.60;89.30;;;;;;5055170;28;20422;-78
2023/09/05 06:05:51;;;;;;;5.22;1.98;;;20.70;89.10;;;;;;5038121;28;20123;-78
2023/09/05 06:08:18;;;;;;;3.03;2.17;;;20.80;89.10;;;;;;5055509;28;20036;-78
2023/09/05 06:10:45;;;;;;;6.68;2.42;;;20.80;88.80;;;;;;5054994;28;20021;-78
2023/09/05 06:13:11;;;;;;;2.70;2.03;;;20.80;88.70;;;;;;5054966;28;20021;-78
2023/09/05 06:15:37;;;;;;;3.58;2.72;;;20.80;88.80;;;;;;5037357;28;20037;-78
2023/09/05 06:18:04;;;;;;;4.13;2.03;;;20.90;88.70;;;;;;5054811;28;20123;-78
2023/09/05 06:20:32;;;;;;;3.50;2.33;;;20.90;88.90;;;;;;5053612;28;20094;-78
2023/09/05 06:22:58;;;;;;;2.85;1.85;;;21.00;88.70;;;;;;5055081;28;20052;-78
2023/09/05 06:25:24;;;;;;;3.03;1.67;;;21.00;88.40;;;;;;5053782;28;20033;-78
2023/09/05 06:27:50;;;;;;;5.13;2.28;;;21.00;88.10;;;;;;5037067;28;20105;-78
2023/09/05 06:30:16;;;;;;;4.90;2.03;;;21.00;88.00;;;;;;5054753;28;20057;-78
2023/09/05 06:32:42;;;;;;;2.05;1.45;;;21.10;88.10;;;;;;5053608;28;20381;-78
2023/09/05 06:35:11;;;;;;;2.55;1.60;;;21.10;88.20;;;;;;5037279;28;20037;-78
2023/09/05 06:37:37;;;;;;;5.68;1.65;;;21.10;87.70;;;;;;5055024;28;20033;-78
2023/09/05 06:40:09;;;;;;;5.22;1.90;;;21.20;87.30;;;;;;5055212;28;20029;-79
2023/09/05 06:42:36;;;;;;;2.47;1.45;;;21.30;86.80;;;;;;5037025;28;20043;-78
2023/09/05 06:45:04;;;;;;;2.47;1.80;;;21.40;86.80;;;;;;5054783;28;20036;-79
2023/09/05 06:47:29;;;;;;;4.57;1.83;;;21.50;86.70;;;;;;5053377;28;20033;-78
2023/09/05 06:49:55;;;;;;;3.65;1.88;;;21.60;86.30;;;;;;5036123;28;20113;-78
2023/09/05 06:52:21;;;;;;;3.05;1.90;;;21.60;86.00;;;;;;5054388;28;20033;-79
2023/09/05 06:54:46;;;;;;;4.03;1.70;;;21.60;86.10;;;;;;5036651;28;20029;-76
2023/09/05 06:57:12;;;;;;;3.25;1.25;;;21.70;86.40;;;;;;5036647;28;20503;-75
2023/09/05 06:59:38;;;;;;;2.28;1.50;;;21.80;85.80;;;;;;5053320;28;20042;-78
2023/09/05 07:02:04;;;;;;;3.22;1.88;;;21.90;85.90;;;;;;5054720;28;20369;-78
2023/09/05 07:04:34;;;;;;;1.92;1.15;;;22.00;85.10;;;;;;5036670;28;20033;-78
2023/09/05 07:07:02;;;;;;;4.45;1.27;;;22.00;84.80;;;;;;5054657;28;20025;-78
2023/09/05 07:09:27;;;;;;;3.60;1.60;;;22.20;84.50;;;;;;5054379;28;20036;-79
2023/09/05 07:11:53;;;;;;;5.03;1.33;;;22.20;84.10;;;;;;5053660;28;20033;-79
2023/09/05 07:14:19;;;;;;;1.95;1.38;;;22.30;83.60;;;;;;5054584;28;20051;-79
2023/09/05 07:16:44;;;;;;;2.72;1.33;;;22.40;83.60;;;;;;5052712;28;20056;-78
2023/09/05 07:19:10;;;;;;;3.70;1.60;;;22.50;83.20;;;;;;5052965;28;20021;-79
2023/09/05 07:21:40;;;;;;;2.40;1.50;;;22.60;82.40;;;;;;5036425;28;20029;-79
2023/09/05 07:24:15;;;;;;;1.13;0.93;;;22.70;82.70;;;;;;5035497;28;20037;-79
2023/09/05 07:26:42;;;;;;;4.78;2.05;;;22.80;82.20;;;;;;5054097;28;20039;-79
2023/09/05 07:29:10;;;;;;;3.60;1.80;;;22.80;83.00;;;;;;5053840;28;20029;-78
2023/09/05 07:31:40;;;;;;;4.80;1.40;;;22.80;81.00;;;;;;5053433;28;20025;-78
2023/09/05 07:34:06;;;;;;;4.32;1.50;;;22.80;82.10;;;;;;5053230;28;20021;-78
2023/09/05 07:36:33;;;;;;;3.25;1.60;;;22.90;82.70;;;;;;5053401;28;20056;-78
2023/09/05 07:39:01;;;;;;;2.13;1.20;;;23.00;82.90;;;;;;5053364;28;20029;-78
2023/09/05 07:41:28;;;;;;;3.22;1.83;;;23.00;82.10;;;;;;5053549;28;20083;-78
2023/09/05 07:43:54;;;;;;;3.80;1.98;;;23.20;82.30;;;;;;5036407;28;20033;-78
2023/09/05 07:46:20;;;;;;;2.03;1.55;;;23.10;81.40;;;;;;5053668;28;20033;-78
2023/09/05 07:48:46;;;;;;;2.40;1.60;;;23.10;81.50;;;;;;5036002;28;20029;-78
2023/09/05 07:51:12;;;;;;;4.45;1.95;;;23.10;81.90;;;;;;5054185;28;20474;-78
2023/09/05 07:53:38;;;;;;;2.95;1.67;;;23.10;83.00;;;;;;5052437;28;20029;-79
2023/09/05 07:56:04;;;;;;;3.95;2.00;;;23.20;82.60;;;;;;5035605;28;20037;-79
2023/09/05 07:58:30;;;;;;;3.17;1.42;;;23.30;82.60;;;;;;5053926;28;20039;-78
2023/09/05 08:00:56;;;;;;;4.18;1.55;;;23.30;82.10;;;;;;5051976;28;20033;-79
2023/09/05 08:03:25;;;;;;;2.17;1.33;;;23.40;82.00;;;;;;5052145;28;20036;-78
2023/09/05 08:05:53;;;;;;;3.58;1.90;;;23.50;81.00;;;;;;5053571;28;20025;-79
2023/09/05 08:08:22;;;;;;;4.10;1.35;;;23.50;81.50;;;;;;5036139;28;20074;-78
2023/09/05 08:10:47;;;;;;;3.33;1.83;;;23.70;80.80;;;;;;5053815;28;20083;-79
2023/09/05 08:13:16;;;;;;;4.03;1.42;;;23.70;80.90;;;;;;5052946;28;20029;-79
2023/09/05 08:15:43;;;;;;;4.20;1.58;;;23.80;79.80;;;;;;5051933;28;20474;-77
2023/09/05 08:18:10;;;;;;;3.53;1.60;;;23.90;78.60;;;;;;5052279;28;20049;-77
2023/09/05 08:20:36;;;;;;;6.00;2.90;;;23.90;78.80;;;;;;5053346;28;20087;-77
2023/09/05 08:23:03;;;;;;;4.93;1.85;;;24.00;78.50;;;;;;5053262;28;20033;-77
2023/09/05 08:25:29;;;;;;;8.73;2.00;;;24.10;80.10;;;;;;5035813;28;20033;-77
2023/09/05 08:27:55;;;;;;;5.75;1.42;;;24.20;78.50;;;;;;5053128;28;20475;-77
2023/09/05 08:30:24;;;;;;;4.18;1.10;;;24.30;78.60;;;;;;5052435;28;20021;-77
2023/09/05 08:32:50;;;;;;;4.50;1.30;;;24.30;77.30;;;;;;5052421;28;20033;-77
2023/09/05 08:35:16;;;;;;;3.75;1.45;;;24.40;77.60;;;;;;5051867;28;20041;-77
2023/09/05 08:37:43;;;;;;;2.85;1.23;;;24.40;77.60;;;;;;5056536;28;20100;-76
2023/09/05 08:40:09;;;;;;;4.20;1.35;;;24.40;77.60;;;;;;5057091;28;20021;-76
2023/09/05 08:42:37;;;;;;;1.45;1.10;;;24.50;79.30;;;;;;5056601;28;20557;-76
2023/09/05 08:45:04;;;;;;;2.67;1.38;;;24.60;78.20;;;;;;5056410;28;20167;-77
2023/09/05 08:47:30;;;;;;;3.78;1.35;;;24.70;78.00;;;;;;5039490;28;20368;-76
2023/09/05 08:49:59;;;;;;;3.13;1.10;;;24.70;78.00;;;;;;5056444;28;20149;-76
2023/09/05 08:52:30;;;;;;;3.25;1.30;;;24.80;77.70;;;;;;5038706;28;20485;-77
2023/09/05 08:54:57;;;;;;;3.88;1.02;;;25.00;77.80;;;;;;5056854;28;20029;-77
2023/09/05 08:57:25;;;;;;;5.40;1.40;;;25.00;78.00;;;;;;5056599;28;20052;-78
2023/09/05 08:59:52;;;;;;;2.92;1.00;;;25.20;78.10;;;;;;5056538;28;20366;-77
2023/09/05 09:02:18;;;;;;;4.60;1.13;;;25.30;77.10;;;;;;5055446;28;20075;-77
2023/09/05 09:04:56;;;;;;;8.80;1.60;;;25.30;78.60;;;;;;5056753;28;20025;-78
2023/09/05 09:07:29;;;;;;;6.43;1.30;;;25.40;77.80;;;;;;5056650;28;20032;-77
2023/09/05 09:09:58;;;;;;;3.80;1.48;;;25.40;76.30;;;;;;5056699;28;20025;-77
2023/09/05 09:12:31;;;;;;;4.32;1.30;;;25.50;76.60;;;;;;5056576;28;20044;-77
2023/09/05 09:15:17;;;;;;;4.72;1.40;;;25.50;76.50;;;;;;5056499;28;20025;-77
2023/09/05 09:17:49;;;;;;;4.43;1.17;;;25.60;77.10;;;;;;5038568;28;20098;-78
2023/09/05 09:20:16;;;;;;;4.10;1.83;;;25.80;75.90;;;;;;5056742;28;20055;-78
2023/09/05 09:22:42;;;;;;;2.60;1.40;;;25.90;76.20;;;;;;5055969;28;20052;-77
2023/09/05 09:25:14;;;;;;;5.93;1.20;;;25.90;77.50;;;;;;5056329;28;20107;-76
2023/09/05 09:27:43;;;;;;;3.22;1.15;;;26.10;76.80;;;;;;5056020;28;20361;-77
2023/09/05 09:30:09;;;;;;;2.67;1.38;;;26.20;76.80;;;;;;5055995;28;20481;-77
2023/09/05 09:32:38;;;;;;;3.40;1.27;;;26.20;75.60;;;;;;5038272;28;20389;-77
2023/09/05 09:35:06;;;;;;;3.13;1.30;;;26.30;75.00;;;;;;5038637;28;20029;-77
2023/09/05 09:37:33;;;;;;;3.95;1.30;;;26.40;74.50;;;;;;5055268;28;20029;-77
2023/09/05 09:39:59;;;;;;;2.00;1.00;;;26.40;74.60;;;;;;5055730;28;20021;-77
2023/09/05 09:42:26;;;;;;;3.65;1.17;;;26.50;75.20;;;;;;5055963;28;20021;-77
2023/09/05 09:44:52;;;;;;;2.83;1.20;;;26.70;75.10;;;;;;5038742;28;20033;-77
2023/09/05 09:47:18;;;;;;;4.15;1.05;;;26.80;75.90;;;;;;5055176;28;20047;-79
2023/09/05 09:49:48;;;;;;;5.22;1.40;;;26.90;75.10;;;;;;5055229;28;20037;-77
2023/09/05 09:52:21;;;;;;;4.13;1.58;;;27.00;74.90;;;;;;5055347;28;20021;-78
2023/09/05 09:54:51;;;;;;;3.85;1.08;;;27.20;77.30;;;;;;5056389;28;20033;-77
2023/09/05 09:57:35;;;;;;;1.92;0.98;;;27.20;75.00;;;;;;5037491;28;20037;-77
2023/09/05 10:00:15;;;;;;;3.58;1.35;;;27.40;73.80;;;;;;5055356;28;20075;-77
2023/09/05 10:02:45;;;;;;;2.30;1.33;;;27.40;73.50;;;;;;5055822;28;20409;-78
2023/09/05 10:05:11;;;;;;;2.60;1.30;;;27.50;72.90;;;;;;5037879;28;20033;-77
2023/09/05 10:07:38;;;;;;;5.45;1.50;;;27.70;73.70;;;;;;5055481;28;20024;-78
2023/09/05 10:10:09;;;;;;;4.93;1.50;;;27.70;75.20;;;;;;5053232;28;20119;-78
2023/09/05 10:12:36;;;;;;;6.27;1.67;;;27.80;74.00;;;;;;5054907;28;20488;-76
2023/09/05 10:15:05;;;;;;;2.88;0.88;;;27.90;72.00;;;;;;5054668;28;20608;-77
2023/09/05 10:17:32;;;;;;;3.42;1.13;;;27.90;72.60;;;;;;5055193;28;20060;-77
2023/09/05 10:19:59;;;;;;;2.35;1.17;;;28.10;74.10;;;;;;5055049;28;20025;-78
2023/09/05 10:22:25;;;;;;;1.88;1.10;;;28.20;71.50;;;;;;5055434;28;20040;-78
2023/09/05 10:24:53;;;;;;;1.83;0.90;;;28.30;72.60;;;;;;5055171;28;20037;-79
2023/09/05 10:27:18;;;;;;;2.05;1.10;;;28.50;72.10;;;;;;5054924;28;20028;-78
2023/09/05 10:29:46;;;;;;;2.15;1.27;;;28.60;72.60;;;;;;5037418;28;20033;-77
2023/09/05 10:32:18;;;;;;;6.70;2.10;;;28.70;73.00;;;;;;5054727;28;20031;-78
2023/09/05 10:34:47;;;;;;;7.72;2.20;;;28.90;73.90;;;;;;5054998;28;20029;-78
2023/09/05 10:37:14;;;;;;;3.25;1.00;;;29.00;73.60;;;;;;5054672;28;20033;-77
2023/09/05 10:39:50;;;;;;;4.15;1.00;;;29.10;71.10;;;;;;5054574;28;20056;-78
2023/09/05 10:42:16;;;;;;;2.25;1.17;;;29.20;71.40;;;;;;5053921;28;20031;-78
2023/09/05 10:44:46;;;;;;;3.67;1.02;;;29.30;69.00;;;;;;5053617;28;20025;-78
2023/09/05 10:47:27;;;;;;;2.95;1.00;;;29.30;69.70;;;;;;5055018;28;20032;-78
2023/09/05 10:50:05;;;;;;;3.03;0.82;;;29.30;68.90;;;;;;5036550;28;20029;-78
2023/09/05 10:52:32;;;;;;;1.95;1.00;;;29.40;71.00;;;;;;5054649;28;20106;-78
2023/09/05 10:54:59;;;;;;;1.80;0.93;;;29.50;71.40;;;;;;5054383;28;20033;-77
2023/09/05 10:57:39;;;;;;;3.83;1.17;;;29.60;72.80;;;;;;5054263;28;20595;-77
2023/09/05 11:00:38;;;;;;;3.97;1.10;;;29.60;71.20;;;;;;5054248;28;20052;-78
2023/09/05 11:03:13;;;;;;;3.40;0.70;;;29.70;69.20;;;;;;5036420;28;20067;-77
2023/09/05 11:05:40;;;;;;;3.35;1.00;;;29.90;68.90;;;;;;5054454;28;20515;-78
2023/09/05 11:08:22;;;;;;;3.45;0.70;;;29.90;69.00;;;;;;5054287;28;20021;-77
2023/09/05 11:10:53;;;;;;;3.55;0.63;;;30.00;68.90;;;;;;5054446;28;20031;-78
2023/09/05 11:13:18;;;;;;;1.20;0.70;;;30.00;65.90;;;;;;5055049;28;20033;-78
2023/09/05 11:15:44;;;;;;;1.58;0.70;;;30.10;64.50;;;;;;5052390;28;20044;-78
2023/09/05 11:18:12;;;;;;;1.70;0.60;;;30.10;64.40;;;;;;5053479;28;20029;-78
2023/09/05 11:20:39;;;;;;;1.98;0.68;;;30.00;64.30;;;;;;5053825;28;20029;-78
2023/09/05 11:23:25;;;;;;;1.35;0.60;;;30.10;64.60;;;;;;5053565;28;20025;-78
2023/09/05 11:26:02;;;;;;;2.55;0.70;;;30.20;63.70;;;;;;5053071;28;20358;-78
2023/09/05 11:28:27;;;;;;;3.33;0.65;;;30.20;64.50;;;;;;5036002;28;20029;-78
2023/09/05 11:30:57;;;;;;;3.28;0.68;;;30.30;64.50;;;;;;5053566;28;20025;-77
2023/09/05 11:33:24;;;;;;;1.10;0.77;;;30.30;64.90;;;;;;5052023;28;20028;-77
2023/09/05 11:35:50;;;;;;;1.20;0.68;;;30.40;65.30;;;;;;5053632;28;20462;-78
2023/09/05 11:38:19;;;;;;;2.53;0.60;;;30.40;63.30;;;;;;5053791;28;20026;-78
2023/09/05 11:40:55;;;;;;;2.97;0.70;;;30.50;63.60;;;;;;5036751;28;20029;-77
2023/09/05 11:43:23;;;;;;;1.83;0.50;;;30.40;64.90;;;;;;5054487;28;20430;-77
2023/09/05 11:45:53;;;;;;;3.10;0.63;;;30.50;62.80;;;;;;5036429;28;20365;-78
2023/09/05 11:48:21;;;;;;;2.25;0.70;;;30.60;63.00;;;;;;5054017;28;20082;-77
2023/09/05 11:50:47;;;;;;;3.28;0.70;;;30.70;63.80;;;;;;5053430;28;20057;-78
2023/09/05 11:53:15;;;;;;;2.38;0.70;;;30.70;63.10;;;;;;5053403;28;20040;-77
2023/09/05 11:55:41;;;;;;;1.38;0.50;;;30.80;63.60;;;;;;5054008;28;20075;-78
2023/09/05 11:58:07;;;;;;;2.45;0.60;;;30.90;64.20;;;;;;5053391;28;20036;-78
2023/09/05 12:00:40;;;;;;;1.05;0.57;;;31.00;65.40;;;;;;5053984;28;20466;-78
2023/09/05 12:03:08;;;;;;;1.70;0.70;;;31.10;62.60;;;;;;5035534;28;20029;-77
2023/09/05 12:05:36;;;;;;;2.13;0.50;;;31.10;65.10;;;;;;5053449;28;20033;-78
2023/09/05 12:08:05;;;;;;;4.65;0.80;;;31.20;64.10;;;;;;5054283;28;20040;-77
2023/09/05 12:10:40;;;;;;;1.90;0.52;;;31.30;63.80;;;;;;5054173;28;20025;-77
2023/09/05 12:13:06;;;;;;;2.00;0.90;;;31.40;63.80;;;;;;5057892;28;20355;-78
2023/09/05 12:15:34;;;;;;;2.67;0.60;;;31.40;63.40;;;;;;5057476;28;20041;-78
2023/09/05 12:18:03;;;;;;;3.72;0.63;;;31.40;62.40;;;;;;5056480;28;20437;-78
2023/09/05 12:20:33;;;;;;;2.80;0.73;;;31.40;62.30;;;;;;5057642;28;20135;-78
2023/09/05 12:22:59;;;;;;;2.58;0.52;;;31.50;63.70;;;;;;5057853;28;20021;-77
2023/09/05 12:25:28;;;;;;;2.30;0.75;;;31.50;62.80;;;;;;5056785;28;20040;-77
2023/09/05 12:27:55;;;;;;;1.50;0.80;;;31.60;64.50;;;;;;5039316;28;20037;-77
2023/09/05 12:30:31;;;;;;;2.35;0.80;;;31.60;64.10;;;;;;5057083;28;20037;-77
2023/09/05 12:33:02;;;;;;;3.88;0.73;;;31.70;62.10;;;;;;5057093;28;20385;-77
2023/09/05 12:35:31;;;;;;;3.67;0.73;;;31.80;62.20;;;;;;5057454;28;20033;-77
2023/09/05 12:37:59;;;;;;;2.05;0.43;;;31.70;61.30;;;;;;5056703;28;20037;-78
2023/09/05 12:40:25;;;;;;;2.97;0.68;;;31.70;61.50;;;;;;5039411;28;20037;-78
2023/09/05 12:42:51;;;;;;;1.35;0.50;;;31.80;61.40;;;;;;5056773;28;20052;-79
2023/09/05 12:45:17;;;;;;;2.65;0.60;;;31.90;62.30;;;;;;5057550;28;20461;-79
2023/09/05 12:47:43;;;;;;;2.38;0.52;;;32.00;62.80;;;;;;5039034;28;20037;-78
2023/09/05 12:50:15;;;;;;;3.00;0.50;;;32.00;62.10;;;;;;5039371;28;20033;-79